sensor_id;sensor_type;location;lat;lon;timestamp;pressure;altitude;pressure_sealevel;temperature;humidity
46347;BME280;32057;47.830;19.046;2023-07-13T00:00:05;100024.19;;;21.37;100.00
46347;BME280;32057;47.830;19.046;2023-07-13T00:02:35;100030.50;;;21.33;100.00
46347;BME280;32057;47.830;19.046;2023-07-13T00:05:00;100046.50;;;21.28;100.00
46347;BME280;32057;47.830;19.046;2023-07-13T00:07:25;100039.56;;;21.24;100.00
46347;BME280;32057;47.830;19.046;2023-07-13T00:09:51;100008.78;;;21.20;100.00
46347;BME280;32057;47.830;19.046;2023-07-13T00:12:26;99990.38;;;21.17;100.00
46347;BME280;32057;47.830;19.046;2023-07-13T00:14:52;99949.88;;;21.15;100.00
46347;BME280;32057;47.830;19.046;2023-07-13T00:17:17;99928.56;;;21.20;100.00
46347;BME280;32057;47.830;19.046;2023-07-13T00:19:43;99918.94;;;21.17;100.00
46347;BME280;32057;47.830;19.046;2023-07-13T00:22:08;99897.69;;;21.19;100.00
46347;BME280;32057;47.830;19.046;2023-07-13T00:24:33;99872.22;;;21.16;100.00
46347;BME280;32057;47.830;19.046;2023-07-13T00:26:59;99878.66;;;21.07;100.00
46347;BME280;32057;47.830;19.046;2023-07-13T00:29:25;99887.44;;;21.08;100.00
46347;BME280;32057;47.830;19.046;2023-07-13T00:31:51;99881.97;;;21.14;100.00
46347;BME280;32057;47.830;19.046;2023-07-13T00:34:16;99890.03;;;21.11;100.00
46347;BME280;32057;47.830;19.046;2023-07-13T00:36:41;99842.41;;;21.11;100.00
46347;BME280;32057;47.830;19.046;2023-07-13T00:39:07;99818.84;;;21.02;100.00
46347;BME280;32057;47.830;19.046;2023-07-13T00:41:32;99806.59;;;20.99;100.00
46347;BME280;32057;47.830;19.046;2023-07-13T00:43:57;99821.06;;;20.87;100.00
46347;BME280;32057;47.830;19.046;2023-07-13T00:46:27;99832.50;;;20.88;100.00
46347;BME280;32057;47.830;19.046;2023-07-13T00:48:53;99834.28;;;20.87;100.00
46347;BME280;32057;47.830;19.046;2023-07-13T00:51:20;99830.81;;;20.85;100.00
46347;BME280;32057;47.830;19.046;2023-07-13T00:53:46;99836.91;;;20.89;100.00
46347;BME280;32057;47.830;19.046;2023-07-13T00:56:11;99838.59;;;20.90;100.00
46347;BME280;32057;47.830;19.046;2023-07-13T00:58:37;99836.81;;;20.91;100.00
46347;BME280;32057;47.830;19.046;2023-07-13T01:01:02;99837.63;;;20.93;100.00
46347;BME280;32057;47.830;19.046;2023-07-13T01:03:27;99827.84;;;20.96;100.00
46347;BME280;32057;47.830;19.046;2023-07-13T01:05:53;99826.88;;;20.99;100.00
46347;BME280;32057;47.830;19.046;2023-07-13T01:08:19;99824.41;;;20.93;100.00
46347;BME280;32057;47.830;19.046;2023-07-13T01:10:54;99821.97;;;20.86;100.00
46347;BME280;32057;47.830;19.046;2023-07-13T01:13:20;99821.09;;;20.86;100.00
46347;BME280;32057;47.830;19.046;2023-07-13T01:15:47;99823.94;;;20.80;100.00
46347;BME280;32057;47.830;19.046;2023-07-13T01:18:14;99822.38;;;20.73;100.00
46347;BME280;32057;47.830;19.046;2023-07-13T01:20:41;99824.94;;;20.76;100.00
46347;BME280;32057;47.830;19.046;2023-07-13T01:23:07;99816.06;;;20.77;100.00
46347;BME280;32057;47.830;19.046;2023-07-13T01:25:37;99818.69;;;20.78;100.00
46347;BME280;32057;47.830;19.046;2023-07-13T01:28:04;99815.16;;;20.79;100.00
46347;BME280;32057;47.830;19.046;2023-07-13T01:30:29;99809.22;;;20.71;100.00
46347;BME280;32057;47.830;19.046;2023-07-13T01:32:55;99818.88;;;20.72;100.00
46347;BME280;32057;47.830;19.046;2023-07-13T01:35:20;99830.31;;;20.73;100.00
46347;BME280;32057;47.830;19.046;2023-07-13T01:37:45;99832.22;;;20.67;100.00
46347;BME280;32057;47.830;19.046;2023-07-13T01:40:11;99827.97;;;20.62;100.00
46347;BME280;32057;47.830;19.046;2023-07-13T01:42:37;99830.69;;;20.59;100.00
46347;BME280;32057;47.830;19.046;2023-07-13T01:45:02;99818.44;;;20.55;100.00
46347;BME280;32057;47.830;19.046;2023-07-13T01:47:28;99819.44;;;20.50;100.00
46347;BME280;32057;47.830;19.046;2023-07-13T01:49:55;99824.03;;;20.45;100.00
46347;BME280;32057;47.830;19.046;2023-07-13T01:52:21;99822.25;;;20.46;100.00
46347;BME280;32057;47.830;19.046;2023-07-13T01:54:46;99831.84;;;20.48;100.00
46347;BME280;32057;47.830;19.046;2023-07-13T01:57:11;99832.81;;;20.46;100.00
46347;BME280;32057;47.830;19.046;2023-07-13T01:59:36;99838.06;;;20.47;100.00
46347;BME280;32057;47.830;19.046;2023-07-13T02:02:02;99833.63;;;20.48;100.00
46347;BME280;32057;47.830;19.046;2023-07-13T02:04:27;99818.53;;;20.53;100.00
46347;BME280;32057;47.830;19.046;2023-07-13T02:06:52;99819.22;;;20.60;100.00
46347;BME280;32057;47.830;19.046;2023-07-13T02:09:18;99812.19;;;20.59;100.00
46347;BME280;32057;47.830;19.046;2023-07-13T02:11:43;99807.03;;;20.54;100.00
46347;BME280;32057;47.830;19.046;2023-07-13T02:14:08;99817.81;;;20.46;100.00
46347;BME280;32057;47.830;19.046;2023-07-13T02:16:33;99821.28;;;20.48;100.00
46347;BME280;32057;47.830;19.046;2023-07-13T02:18:59;99812.41;;;20.51;100.00
46347;BME280;32057;47.830;19.046;2023-07-13T02:21:25;99811.34;;;20.57;100.00
46347;BME280;32057;47.830;19.046;2023-07-13T02:23:50;99806.94;;;20.57;100.00
46347;BME280;32057;47.830;19.046;2023-07-13T02:26:16;99809.66;;;20.54;100.00
46347;BME280;32057;47.830;19.046;2023-07-13T02:28:41;99819.78;;;20.40;100.00
46347;BME280;32057;47.830;19.046;2023-07-13T02:31:11;99814.50;;;20.40;100.00
46347;BME280;32057;47.830;19.046;2023-07-13T02:33:36;99811.66;;;20.46;100.00
46347;BME280;32057;47.830;19.046;2023-07-13T02:36:02;99818.09;;;20.37;100.00
46347;BME280;32057;47.830;19.046;2023-07-13T02:38:28;99825.38;;;20.29;100.00
46347;BME280;32057;47.830;19.046;2023-07-13T02:40:53;99841.28;;;20.26;100.00
46347;BME280;32057;47.830;19.046;2023-07-13T02:43:19;99836.97;;;20.23;100.00
46347;BME280;32057;47.830;19.046;2023-07-13T02:45:44;99822.19;;;20.16;100.00
46347;BME280;32057;47.830;19.046;2023-07-13T02:48:10;99818.00;;;20.09;100.00
46347;BME280;32057;47.830;19.046;2023-07-13T02:50:35;99824.63;;;19.91;100.00
46347;BME280;32057;47.830;19.046;2023-07-13T02:53:00;99822.72;;;19.96;100.00
46347;BME280;32057;47.830;19.046;2023-07-13T02:55:25;99808.66;;;19.96;100.00
46347;BME280;32057;47.830;19.046;2023-07-13T02:57:51;99814.34;;;19.79;100.00
46347;BME280;32057;47.830;19.046;2023-07-13T03:00:16;99820.53;;;19.79;100.00
46347;BME280;32057;47.830;19.046;2023-07-13T03:02:41;99820.38;;;19.85;100.00
46347;BME280;32057;47.830;19.046;2023-07-13T03:05:07;99832.31;;;19.99;100.00
46347;BME280;32057;47.830;19.046;2023-07-13T03:07:32;99839.25;;;20.03;100.00
46347;BME280;32057;47.830;19.046;2023-07-13T03:09:58;99853.41;;;20.00;100.00
46347;BME280;32057;47.830;19.046;2023-07-13T03:12:24;99855.44;;;19.90;100.00
46347;BME280;32057;47.830;19.046;2023-07-13T03:14:49;99849.97;;;19.97;100.00
46347;BME280;32057;47.830;19.046;2023-07-13T03:17:14;99854.38;;;19.98;100.00
46347;BME280;32057;47.830;19.046;2023-07-13T03:19:39;99857.13;;;19.93;100.00
46347;BME280;32057;47.830;19.046;2023-07-13T03:22:05;99859.78;;;19.93;100.00
46347;BME280;32057;47.830;19.046;2023-07-13T03:24:32;99849.16;;;19.95;100.00
46347;BME280;32057;47.830;19.046;2023-07-13T03:26:57;99843.94;;;19.93;100.00
46347;BME280;32057;47.830;19.046;2023-07-13T03:29:22;99849.31;;;19.88;100.00
46347;BME280;32057;47.830;19.046;2023-07-13T03:31:47;99837.91;;;19.88;100.00
46347;BME280;32057;47.830;19.046;2023-07-13T03:34:13;99833.59;;;19.84;100.00
46347;BME280;32057;47.830;19.046;2023-07-13T03:36:38;99833.38;;;19.93;100.00
46347;BME280;32057;47.830;19.046;2023-07-13T03:39:03;99827.94;;;19.99;100.00
46347;BME280;32057;47.830;19.046;2023-07-13T03:41:29;99817.19;;;20.05;100.00
46347;BME280;32057;47.830;19.046;2023-07-13T03:43:54;99828.50;;;20.10;100.00
46347;BME280;32057;47.830;19.046;2023-07-13T03:46:19;99841.78;;;20.07;100.00
46347;BME280;32057;47.830;19.046;2023-07-13T03:48:45;99844.53;;;20.03;100.00
46347;BME280;32057;47.830;19.046;2023-07-13T03:51:12;99838.31;;;20.05;100.00
46347;BME280;32057;47.830;19.046;2023-07-13T03:53:40;99850.78;;;20.00;100.00
46347;BME280;32057;47.830;19.046;2023-07-13T03:56:05;99863.94;;;20.02;100.00
46347;BME280;32057;47.830;19.046;2023-07-13T03:58:35;99859.53;;;20.02;100.00
46347;BME280;32057;47.830;19.046;2023-07-13T04:01:01;99856.00;;;20.03;100.00
46347;BME280;32057;47.830;19.046;2023-07-13T04:03:27;99856.81;;;20.05;100.00
46347;BME280;32057;47.830;19.046;2023-07-13T04:05:56;99856.66;;;20.12;100.00
46347;BME280;32057;47.830;19.046;2023-07-13T04:08:35;99861.66;;;20.21;100.00
46347;BME280;32057;47.830;19.046;2023-07-13T04:11:01;99864.06;;;20.30;100.00
46347;BME280;32057;47.830;19.046;2023-07-13T04:13:27;99855.31;;;20.28;100.00
46347;BME280;32057;47.830;19.046;2023-07-13T04:15:52;99853.50;;;20.30;100.00
46347;BME280;32057;47.830;19.046;2023-07-13T04:18:18;99869.28;;;20.33;100.00
46347;BME280;32057;47.830;19.046;2023-07-13T04:20:45;99876.09;;;20.42;100.00
46347;BME280;32057;47.830;19.046;2023-07-13T04:23:10;99878.69;;;20.43;100.00
46347;BME280;32057;47.830;19.046;2023-07-13T04:25:35;99892.25;;;20.31;100.00
46347;BME280;32057;47.830;19.046;2023-07-13T04:28:01;99889.72;;;20.26;100.00
46347;BME280;32057;47.830;19.046;2023-07-13T04:30:26;99900.19;;;20.31;100.00
46347;BME280;32057;47.830;19.046;2023-07-13T04:32:51;99912.41;;;20.35;100.00
46347;BME280;32057;47.830;19.046;2023-07-13T04:35:17;99920.59;;;20.24;100.00
46347;BME280;32057;47.830;19.046;2023-07-13T04:37:43;99920.88;;;20.14;100.00
46347;BME280;32057;47.830;19.046;2023-07-13T04:40:08;99934.16;;;20.10;100.00
46347;BME280;32057;47.830;19.046;2023-07-13T04:42:37;99932.63;;;20.02;100.00
46347;BME280;32057;47.830;19.046;2023-07-13T04:45:02;99944.06;;;20.01;100.00
46347;BME280;32057;47.830;19.046;2023-07-13T04:47:30;99961.53;;;20.06;100.00
46347;BME280;32057;47.830;19.046;2023-07-13T04:49:55;99960.75;;;20.03;100.00
46347;BME280;32057;47.830;19.046;2023-07-13T04:52:20;99964.34;;;20.00;100.00
46347;BME280;32057;47.830;19.046;2023-07-13T04:54:46;99975.81;;;19.99;100.00
46347;BME280;32057;47.830;19.046;2023-07-13T04:57:11;99967.94;;;19.98;100.00
46347;BME280;32057;47.830;19.046;2023-07-13T04:59:36;99975.03;;;19.96;100.00
46347;BME280;32057;47.830;19.046;2023-07-13T05:02:02;99986.44;;;19.96;100.00
46347;BME280;32057;47.830;19.046;2023-07-13T05:04:28;100003.94;;;20.00;100.00
46347;BME280;32057;47.830;19.046;2023-07-13T05:06:53;100031.28;;;19.99;100.00
46347;BME280;32057;47.830;19.046;2023-07-13T05:09:18;100034.84;;;19.97;100.00
46347;BME280;32057;47.830;19.046;2023-07-13T05:11:43;100062.16;;;19.97;100.00
46347;BME280;32057;47.830;19.046;2023-07-13T05:14:09;100075.28;;;19.99;100.00
46347;BME280;32057;47.830;19.046;2023-07-13T05:16:35;100081.53;;;19.96;100.00
46347;BME280;32057;47.830;19.046;2023-07-13T05:19:00;100102.75;;;19.92;100.00
46347;BME280;32057;47.830;19.046;2023-07-13T05:21:25;100111.69;;;19.86;100.00
46347;BME280;32057;47.830;19.046;2023-07-13T05:23:51;100124.16;;;19.79;100.00
46347;BME280;32057;47.830;19.046;2023-07-13T05:26:16;100140.06;;;19.75;100.00
46347;BME280;32057;47.830;19.046;2023-07-13T05:28:42;100145.41;;;19.70;100.00
46347;BME280;32057;47.830;19.046;2023-07-13T05:31:08;100149.03;;;19.66;100.00
46347;BME280;32057;47.830;19.046;2023-07-13T05:33:33;100152.59;;;19.63;100.00
46347;BME280;32057;47.830;19.046;2023-07-13T05:35:58;100151.91;;;19.54;100.00
46347;BME280;32057;47.830;19.046;2023-07-13T05:38:25;100159.88;;;19.49;100.00
46347;BME280;32057;47.830;19.046;2023-07-13T05:40:51;100157.34;;;19.44;100.00
46347;BME280;32057;47.830;19.046;2023-07-13T05:43:16;100150.47;;;19.36;100.00
46347;BME280;32057;47.830;19.046;2023-07-13T05:45:41;100156.72;;;19.32;100.00
46347;BME280;32057;47.830;19.046;2023-07-13T05:48:06;100156.75;;;19.28;100.00
46347;BME280;32057;47.830;19.046;2023-07-13T05:50:32;100149.88;;;19.21;100.00
46347;BME280;32057;47.830;19.046;2023-07-13T05:52:57;100156.78;;;19.27;100.00
46347;BME280;32057;47.830;19.046;2023-07-13T05:55:22;100148.06;;;19.23;100.00
46347;BME280;32057;47.830;19.046;2023-07-13T05:57:48;100159.47;;;19.25;100.00
46347;BME280;32057;47.830;19.046;2023-07-13T06:00:13;100155.06;;;19.24;100.00
46347;BME280;32057;47.830;19.046;2023-07-13T06:02:39;100158.56;;;19.25;100.00
46347;BME280;32057;47.830;19.046;2023-07-13T06:05:04;100148.97;;;19.22;100.00
46347;BME280;32057;47.830;19.046;2023-07-13T06:07:30;100146.31;;;19.22;100.00
46347;BME280;32057;47.830;19.046;2023-07-13T06:09:55;100132.28;;;19.20;100.00
46347;BME280;32057;47.830;19.046;2023-07-13T06:12:20;100120.88;;;19.20;100.00
46347;BME280;32057;47.830;19.046;2023-07-13T06:14:46;100117.31;;;19.21;100.00
46347;BME280;32057;47.830;19.046;2023-07-13T06:17:11;100106.84;;;19.18;100.00
46347;BME280;32057;47.830;19.046;2023-07-13T06:19:36;100096.31;;;19.16;100.00
46347;BME280;32057;47.830;19.046;2023-07-13T06:22:01;100089.31;;;19.15;100.00
46347;BME280;32057;47.830;19.046;2023-07-13T06:24:27;100077.97;;;19.10;100.00
46347;BME280;32057;47.830;19.046;2023-07-13T06:26:52;100063.09;;;19.07;100.00
46347;BME280;32057;47.830;19.046;2023-07-13T06:29:17;100046.38;;;19.07;100.00
46347;BME280;32057;47.830;19.046;2023-07-13T06:31:42;100033.25;;;19.04;100.00
46347;BME280;32057;47.830;19.046;2023-07-13T06:34:08;99999.88;;;19.03;100.00
46347;BME280;32057;47.830;19.046;2023-07-13T06:36:33;99940.00;;;19.08;100.00
46347;BME280;32057;47.830;19.046;2023-07-13T06:38:58;99866.03;;;19.14;100.00
46347;BME280;32057;47.830;19.046;2023-07-13T06:41:24;99724.44;;;19.16;100.00
46347;BME280;32057;47.830;19.046;2023-07-13T06:43:51;99468.59;;;19.16;100.00
46347;BME280;32057;47.830;19.046;2023-07-13T06:46:16;99421.28;;;19.12;100.00
46347;BME280;32057;47.830;19.046;2023-07-13T06:48:41;99486.63;;;19.00;100.00
46347;BME280;32057;47.830;19.046;2023-07-13T06:51:07;99576.31;;;18.99;100.00
46347;BME280;32057;47.830;19.046;2023-07-13T06:53:33;99606.88;;;19.07;100.00
46347;BME280;32057;47.830;19.046;2023-07-13T06:55:58;99633.13;;;19.10;100.00
46347;BME280;32057;47.830;19.046;2023-07-13T06:58:23;99646.78;;;19.26;100.00
46347;BME280;32057;47.830;19.046;2023-07-13T07:00:50;99655.31;;;19.38;100.00
46347;BME280;32057;47.830;19.046;2023-07-13T07:03:15;99648.63;;;19.57;100.00
46347;BME280;32057;47.830;19.046;2023-07-13T07:05:41;99659.00;;;19.63;100.00
46347;BME280;32057;47.830;19.046;2023-07-13T07:08:06;99665.50;;;19.83;100.00
46347;BME280;32057;47.830;19.046;2023-07-13T07:10:31;99725.22;;;19.88;100.00
46347;BME280;32057;47.830;19.046;2023-07-13T07:12:57;99836.03;;;19.92;100.00
46347;BME280;32057;47.830;19.046;2023-07-13T07:15:22;99880.09;;;19.91;100.00
46347;BME280;32057;47.830;19.046;2023-07-13T07:17:47;99877.72;;;19.79;100.00
46347;BME280;32057;47.830;19.046;2023-07-13T07:20:13;99886.22;;;19.92;100.00
46347;BME280;32057;47.830;19.046;2023-07-13T07:22:38;99885.88;;;20.05;100.00
46347;BME280;32057;47.830;19.046;2023-07-13T07:25:04;99879.13;;;19.94;100.00
46347;BME280;32057;47.830;19.046;2023-07-13T07:27:29;99875.34;;;20.04;100.00
46347;BME280;32057;47.830;19.046;2023-07-13T07:29:54;99891.06;;;20.08;100.00
46347;BME280;32057;47.830;19.046;2023-07-13T07:32:20;99885.56;;;20.16;100.00
46347;BME280;32057;47.830;19.046;2023-07-13T07:34:45;99893.19;;;20.28;100.00
46347;BME280;32057;47.830;19.046;2023-07-13T07:37:11;99896.56;;;20.34;100.00
46347;BME280;32057;47.830;19.046;2023-07-13T07:39:38;99896.47;;;20.37;100.00
46347;BME280;32057;47.830;19.046;2023-07-13T07:42:04;99915.72;;;20.42;100.00
46347;BME280;32057;47.830;19.046;2023-07-13T07:44:30;99918.19;;;20.49;100.00
46347;BME280;32057;47.830;19.046;2023-07-13T07:46:55;99927.66;;;20.57;100.00
46347;BME280;32057;47.830;19.046;2023-07-13T07:49:21;99934.03;;;20.49;100.00
46347;BME280;32057;47.830;19.046;2023-07-13T07:51:46;99948.31;;;20.42;100.00
46347;BME280;32057;47.830;19.046;2023-07-13T07:54:12;99943.97;;;20.40;100.00
46347;BME280;32057;47.830;19.046;2023-07-13T07:56:37;99949.91;;;20.49;100.00
46347;BME280;32057;47.830;19.046;2023-07-13T07:59:02;99947.91;;;20.58;100.00
46347;BME280;32057;47.830;19.046;2023-07-13T08:01:27;99949.53;;;20.65;100.00
46347;BME280;32057;47.830;19.046;2023-07-13T08:03:53;99946.75;;;20.69;100.00
46347;BME280;32057;47.830;19.046;2023-07-13T08:06:18;99944.75;;;20.78;100.00
46347;BME280;32057;47.830;19.046;2023-07-13T08:08:47;99938.16;;;20.93;100.00
46347;BME280;32057;47.830;19.046;2023-07-13T08:11:12;99940.41;;;21.06;100.00
46347;BME280;32057;47.830;19.046;2023-07-13T08:13:37;99943.75;;;21.13;100.00
46347;BME280;32057;47.830;19.046;2023-07-13T08:16:04;99943.34;;;21.27;100.00
46347;BME280;32057;47.830;19.046;2023-07-13T08:18:29;99941.16;;;21.41;100.00
46347;BME280;32057;47.830;19.046;2023-07-13T08:20:54;99949.00;;;21.44;100.00
46347;BME280;32057;47.830;19.046;2023-07-13T08:23:24;99951.03;;;21.64;100.00
46347;BME280;32057;47.830;19.046;2023-07-13T08:25:52;99949.81;;;21.75;100.00
46347;BME280;32057;47.830;19.046;2023-07-13T08:28:19;99961.78;;;21.88;100.00
46347;BME280;32057;47.830;19.046;2023-07-13T08:30:44;99951.19;;;21.88;100.00
46347;BME280;32057;47.830;19.046;2023-07-13T08:33:09;99950.69;;;22.03;100.00
46347;BME280;32057;47.830;19.046;2023-07-13T08:35:34;99948.09;;;22.28;100.00
46347;BME280;32057;47.830;19.046;2023-07-13T08:38:00;99943.13;;;22.44;100.00
46347;BME280;32057;47.830;19.046;2023-07-13T08:40:25;99951.00;;;22.47;100.00
46347;BME280;32057;47.830;19.046;2023-07-13T08:42:58;99952.78;;;22.72;100.00
46347;BME280;32057;47.830;19.046;2023-07-13T08:45:33;99950.47;;;22.86;100.00
46347;BME280;32057;47.830;19.046;2023-07-13T08:53:33;99944.59;;;22.78;100.00
46347;BME280;32057;47.830;19.046;2023-07-13T08:55:59;99946.59;;;22.97;100.00
46347;BME280;32057;47.830;19.046;2023-07-13T08:58:25;99954.22;;;23.06;100.00
46347;BME280;32057;47.830;19.046;2023-07-13T09:06:21;99955.75;;;23.37;100.00
46347;BME280;32057;47.830;19.046;2023-07-13T09:09:06;99955.38;;;23.22;100.00
46347;BME280;32057;47.830;19.046;2023-07-13T09:11:47;99947.06;;;23.32;100.00
46347;BME280;32057;47.830;19.046;2023-07-13T09:14:24;99942.69;;;23.31;100.00
46347;BME280;32057;47.830;19.046;2023-07-13T09:16:53;99948.72;;;23.34;100.00
46347;BME280;32057;47.830;19.046;2023-07-13T09:19:25;99948.97;;;23.28;100.00
46347;BME280;32057;47.830;19.046;2023-07-13T09:21:53;99949.00;;;23.50;100.00
46347;BME280;32057;47.830;19.046;2023-07-13T09:26:47;99955.38;;;23.22;100.00
46347;BME280;32057;47.830;19.046;2023-07-13T09:29:14;99951.00;;;23.45;100.00
46347;BME280;32057;47.830;19.046;2023-07-13T09:31:44;99949.25;;;23.44;100.00
46347;BME280;32057;47.830;19.046;2023-07-13T09:34:13;99952.34;;;23.55;100.00
46347;BME280;32057;47.830;19.046;2023-07-13T09:36:38;99960.63;;;23.70;100.00
46347;BME280;32057;47.830;19.046;2023-07-13T09:44:10;99966.84;;;23.92;100.00
46347;BME280;32057;47.830;19.046;2023-07-13T09:46:37;99958.97;;;23.91;100.00
46347;BME280;32057;47.830;19.046;2023-07-13T09:49:02;99955.06;;;23.76;100.00
46347;BME280;32057;47.830;19.046;2023-07-13T09:51:28;99957.34;;;24.09;100.00
46347;BME280;32057;47.830;19.046;2023-07-13T09:53:53;99954.97;;;24.23;100.00
46347;BME280;32057;47.830;19.046;2023-07-13T09:56:28;99950.84;;;24.36;100.00
46347;BME280;32057;47.830;19.046;2023-07-13T09:58:55;99967.00;;;24.32;100.00
46347;BME280;32057;47.830;19.046;2023-07-13T10:01:33;99968.94;;;24.49;100.00
46347;BME280;32057;47.830;19.046;2023-07-13T10:03:59;99962.84;;;24.47;100.00
46347;BME280;32057;47.830;19.046;2023-07-13T10:06:24;99965.81;;;24.39;100.00
46347;BME280;32057;47.830;19.046;2023-07-13T10:08:51;99959.13;;;24.51;100.00
46347;BME280;32057;47.830;19.046;2023-07-13T10:11:18;99956.81;;;24.41;100.00
46347;BME280;32057;47.830;19.046;2023-07-13T10:13:48;99962.31;;;24.59;100.00
46347;BME280;32057;47.830;19.046;2023-07-13T10:16:15;99964.72;;;24.65;100.00
46347;BME280;32057;47.830;19.046;2023-07-13T10:18:57;99961.53;;;24.57;100.00
46347;BME280;32057;47.830;19.046;2023-07-13T10:21:26;99954.19;;;24.82;100.00
46347;BME280;32057;47.830;19.046;2023-07-13T10:24:03;99957.56;;;24.86;100.00
46347;BME280;32057;47.830;19.046;2023-07-13T10:26:31;99958.28;;;24.90;100.00
46347;BME280;32057;47.830;19.046;2023-07-13T10:28:57;99969.09;;;24.87;100.00
46347;BME280;32057;47.830;19.046;2023-07-13T10:31:24;99954.91;;;24.86;100.00
46347;BME280;32057;47.830;19.046;2023-07-13T10:33:49;99961.47;;;24.98;100.00
46347;BME280;32057;47.830;19.046;2023-07-13T10:36:29;99967.31;;;25.06;100.00
46347;BME280;32057;47.830;19.046;2023-07-13T10:38:56;99964.78;;;25.23;100.00
46347;BME280;32057;47.830;19.046;2023-07-13T10:41:23;99964.50;;;25.30;100.00
46347;BME280;32057;47.830;19.046;2023-07-13T10:43:52;99962.25;;;25.20;100.00
46347;BME280;32057;47.830;19.046;2023-07-13T10:46:20;99962.44;;;25.16;100.00
46347;BME280;32057;47.830;19.046;2023-07-13T10:48:48;99956.97;;;25.19;100.00
46347;BME280;32057;47.830;19.046;2023-07-13T10:51:17;99953.13;;;25.45;100.00
46347;BME280;32057;47.830;19.046;2023-07-13T10:53:42;99949.75;;;25.60;100.00
46347;BME280;32057;47.830;19.046;2023-07-13T10:56:28;99947.88;;;25.62;100.00
46347;BME280;32057;47.830;19.046;2023-07-13T10:59:10;99946.44;;;25.55;100.00
46347;BME280;32057;47.830;19.046;2023-07-13T11:01:46;99950.66;;;25.59;100.00
46347;BME280;32057;47.830;19.046;2023-07-13T11:04:13;99960.25;;;25.63;100.00
46347;BME280;32057;47.830;19.046;2023-07-13T11:06:40;99966.84;;;25.74;100.00
46347;BME280;32057;47.830;19.046;2023-07-13T11:09:31;99954.13;;;25.61;100.00
46347;BME280;32057;47.830;19.046;2023-07-13T11:12:01;99948.50;;;25.68;100.00
46347;BME280;32057;47.830;19.046;2023-07-13T11:16:53;99950.81;;;25.94;100.00
46347;BME280;32057;47.830;19.046;2023-07-13T11:22:09;99944.31;;;26.17;100.00
46347;BME280;32057;47.830;19.046;2023-07-13T11:24:53;99948.63;;;26.37;100.00
46347;BME280;32057;47.830;19.046;2023-07-13T11:27:22;99949.72;;;26.51;100.00
46347;BME280;32057;47.830;19.046;2023-07-13T11:29:47;99942.34;;;26.38;100.00
46347;BME280;32057;47.830;19.046;2023-07-13T11:32:23;99944.25;;;26.36;100.00
46347;BME280;32057;47.830;19.046;2023-07-13T11:34:51;99954.44;;;26.28;93.74
46347;BME280;32057;47.830;19.046;2023-07-13T11:37:18;99956.72;;;26.18;97.09
46347;BME280;32057;47.830;19.046;2023-07-13T11:39:44;99958.81;;;26.29;99.87
46347;BME280;32057;47.830;19.046;2023-07-13T11:42:15;99964.03;;;26.32;92.34
46347;BME280;32057;47.830;19.046;2023-07-13T11:44:46;99963.66;;;26.03;92.30
46347;BME280;32057;47.830;19.046;2023-07-13T11:47:14;99964.31;;;26.09;93.09
46347;BME280;32057;47.830;19.046;2023-07-13T11:49:43;99969.03;;;26.21;92.33
46347;BME280;32057;47.830;19.046;2023-07-13T11:52:19;99962.25;;;26.14;92.92
46347;BME280;32057;47.830;19.046;2023-07-13T11:54:53;99950.09;;;26.26;92.76
46347;BME280;32057;47.830;19.046;2023-07-13T11:57:29;99958.19;;;26.24;91.69
46347;BME280;32057;47.830;19.046;2023-07-13T11:59:56;99950.72;;;26.13;93.49
46347;BME280;32057;47.830;19.046;2023-07-13T12:02:28;99954.22;;;26.50;92.07
46347;BME280;32057;47.830;19.046;2023-07-13T12:04:54;99957.94;;;26.11;92.16
46347;BME280;32057;47.830;19.046;2023-07-13T12:07:19;99951.75;;;26.46;97.66
46347;BME280;32057;47.830;19.046;2023-07-13T12:09:45;99946.25;;;26.14;93.21
46347;BME280;32057;47.830;19.046;2023-07-13T12:12:14;99941.88;;;26.13;94.83
46347;BME280;32057;47.830;19.046;2023-07-13T12:14:40;99939.69;;;26.21;94.50
46347;BME280;32057;47.830;19.046;2023-07-13T12:17:23;99937.31;;;26.15;94.23
46347;BME280;32057;47.830;19.046;2023-07-13T12:19:50;99936.53;;;26.48;94.66
46347;BME280;32057;47.830;19.046;2023-07-13T12:22:16;99944.31;;;26.35;93.91
46347;BME280;32057;47.830;19.046;2023-07-13T12:24:41;99935.06;;;26.59;93.46
46347;BME280;32057;47.830;19.046;2023-07-13T12:27:22;99940.63;;;26.72;95.01
46347;BME280;32057;47.830;19.046;2023-07-13T12:30:04;99937.13;;;26.88;90.67
46347;BME280;32057;47.830;19.046;2023-07-13T12:32:30;99938.81;;;26.55;91.43
46347;BME280;32057;47.830;19.046;2023-07-13T12:35:13;99944.09;;;26.74;89.74
46347;BME280;32057;47.830;19.046;2023-07-13T12:37:41;99924.75;;;26.69;92.64
46347;BME280;32057;47.830;19.046;2023-07-13T12:40:12;99917.84;;;26.82;92.03
46347;BME280;32057;47.830;19.046;2023-07-13T12:42:38;99929.41;;;26.99;90.22
46347;BME280;32057;47.830;19.046;2023-07-13T12:47:41;99916.06;;;26.66;88.33
46347;BME280;32057;47.830;19.046;2023-07-13T12:50:17;99918.72;;;26.99;89.89
46347;BME280;32057;47.830;19.046;2023-07-13T12:52:43;99918.94;;;27.28;88.51
46347;BME280;32057;47.830;19.046;2023-07-13T12:55:14;99909.63;;;27.19;86.29
46347;BME280;32057;47.830;19.046;2023-07-13T12:57:42;99909.38;;;27.24;87.30
46347;BME280;32057;47.830;19.046;2023-07-13T13:02:49;99905.13;;;27.19;90.20
46347;BME280;32057;47.830;19.046;2023-07-13T13:05:15;99910.13;;;27.10;85.40
46347;BME280;32057;47.830;19.046;2023-07-13T13:07:41;99908.13;;;27.31;91.80